createdAt,value
2023-02-04T00:02:24.081Z,9.06
2023-02-04T00:07:18.457Z,9.06
2023-02-04T00:12:10.863Z,9.05
2023-02-04T00:17:02.610Z,9.06
2023-02-04T00:21:54.322Z,9.08
2023-02-04T00:26:46.134Z,9.09
2023-02-04T00:31:37.987Z,9.07
2023-02-04T00:36:29.851Z,9.03
2023-02-04T00:41:21.799Z,9.02
2023-02-04T00:46:13.827Z,8.97
2023-02-04T00:51:05.826Z,8.93
2023-02-04T00:55:57.508Z,8.95
2023-02-04T01:00:49.353Z,8.98
2023-02-04T01:05:41.320Z,8.95
2023-02-04T01:10:33.314Z,8.94
2023-02-04T01:15:25.361Z,8.91
2023-02-04T01:20:17.423Z,8.91
2023-02-04T01:25:09.211Z,8.89
2023-02-04T01:30:01.023Z,8.89
2023-02-04T01:34:52.806Z,8.87
2023-02-04T01:39:44.711Z,8.85
2023-02-04T01:44:36.576Z,8.83
2023-02-04T01:49:29.411Z,8.82
2023-02-04T01:54:22.059Z,8.80
2023-02-04T01:59:16.126Z,8.79
2023-02-04T02:04:10.253Z,8.77
2023-02-04T02:09:02.433Z,8.77
2023-02-04T02:13:54.399Z,8.76
2023-02-04T02:18:46.170Z,8.76
2023-02-04T02:23:53.167Z,8.71
2023-02-04T02:28:47.726Z,8.69
2023-02-04T02:33:39.621Z,8.69
2023-02-04T02:38:31.393Z,8.70
2023-02-04T02:43:25.643Z,8.68
2023-02-04T02:48:18.147Z,8.64
2023-02-04T02:53:14.327Z,8.65
2023-02-04T02:58:15.683Z,8.65
2023-02-04T03:03:19.366Z,8.60
2023-02-04T03:08:14.244Z,8.60
2023-02-04T03:13:06.321Z,8.61
2023-02-04T03:17:59.021Z,8.59
2023-02-04T03:22:51.619Z,8.57
2023-02-04T03:27:43.402Z,8.54
2023-02-04T03:32:35.714Z,8.53
2023-02-04T03:37:27.478Z,8.48
2023-02-04T03:42:19.184Z,8.46
2023-02-04T03:47:10.914Z,8.46
2023-02-04T03:52:05.982Z,8.46
2023-02-04T03:56:57.615Z,8.40
2023-02-04T04:01:49.354Z,8.38
2023-02-04T04:06:40.985Z,8.38
2023-02-04T04:11:33.929Z,8.33
2023-02-04T04:16:25.605Z,8.34
2023-02-04T04:21:17.323Z,8.33
2023-02-04T04:26:09.050Z,8.31
2023-02-04T04:31:00.879Z,8.31
2023-02-04T04:35:52.606Z,8.25
2023-02-04T04:40:44.323Z,8.22
2023-02-04T04:45:36.036Z,8.19
2023-02-04T04:50:27.785Z,8.17
2023-02-04T04:55:19.464Z,8.17
2023-02-04T05:00:15.537Z,8.14
2023-02-04T05:05:07.470Z,8.13
2023-02-04T05:09:59.246Z,8.13
2023-02-04T05:14:50.928Z,8.10
2023-02-04T05:19:42.735Z,8.09
2023-02-04T05:24:34.493Z,8.09
2023-02-04T05:29:26.260Z,8.10
2023-02-04T05:34:17.923Z,8.09
2023-02-04T05:39:09.619Z,8.11
2023-02-04T05:44:01.269Z,8.11
2023-02-04T05:48:53.065Z,8.09
2023-02-04T05:53:44.748Z,8.07
2023-02-04T05:58:36.892Z,8.02
2023-02-04T06:03:30.733Z,8.04
2023-02-04T06:08:23.228Z,8.04
2023-02-04T06:13:14.966Z,8.04
2023-02-04T06:18:07.279Z,8.05
2023-02-04T06:22:58.967Z,8.06
2023-02-04T06:27:51.312Z,8.04
2023-02-04T06:32:43.297Z,8.04
2023-02-04T06:37:35.269Z,8.07
2023-02-04T06:42:26.944Z,8.05
2023-02-04T06:47:18.999Z,8.05
2023-02-04T06:52:11.015Z,8.04
2023-02-04T06:57:08.814Z,8.03
2023-02-04T07:02:00.521Z,8.02
2023-02-04T07:06:52.369Z,8.04
2023-02-04T07:11:44.123Z,8.05
2023-02-04T07:16:35.858Z,8.07
2023-02-04T07:21:27.682Z,8.09
2023-02-04T07:26:19.484Z,8.08
2023-02-04T07:31:11.311Z,8.04
2023-02-04T07:36:03.317Z,8.03
2023-02-04T07:40:55.050Z,8.02
2023-02-04T07:45:47.046Z,7.99
2023-02-04T07:50:38.681Z,7.99
2023-02-04T07:55:30.439Z,7.97
2023-02-04T08:00:22.451Z,7.96
2023-02-04T08:05:14.491Z,7.93
2023-02-04T08:10:07.501Z,7.92
2023-02-04T08:14:59.231Z,7.87
2023-02-04T08:19:50.871Z,7.85
2023-02-04T08:24:42.482Z,7.83
2023-02-04T08:29:34.246Z,7.83
2023-02-04T08:34:25.907Z,7.81
2023-02-04T08:39:17.590Z,7.78
2023-02-04T08:44:09.276Z,7.79
2023-02-04T08:49:01.978Z,7.81
2023-02-04T08:53:53.739Z,7.81
2023-02-04T08:58:45.524Z,7.81
2023-02-04T09:03:38.199Z,7.78
2023-02-04T09:08:29.899Z,7.77
2023-02-04T09:13:21.672Z,7.80
2023-02-04T09:18:21.968Z,7.85
2023-02-04T09:23:14.187Z,7.88
2023-02-04T09:28:07.252Z,7.91
2023-02-04T09:32:58.962Z,7.96
2023-02-04T09:37:50.656Z,7.99
2023-02-04T09:42:42.487Z,8.03
2023-02-04T09:47:34.349Z,8.14
2023-02-04T09:52:28.288Z,8.23
2023-02-04T09:57:21.086Z,8.22
2023-02-04T10:02:24.669Z,8.22
2023-02-04T10:07:22.202Z,8.21
2023-02-04T10:12:14.703Z,8.15
2023-02-04T10:17:08.837Z,8.13
2023-02-04T10:22:00.788Z,8.13
2023-02-04T10:26:53.360Z,8.08
2023-02-04T10:31:47.409Z,8.07
2023-02-04T10:36:40.874Z,8.13
2023-02-04T10:41:34.446Z,8.14
2023-02-04T10:46:32.026Z,8.17
2023-02-04T10:51:23.899Z,8.21
2023-02-04T10:56:22.310Z,8.25
2023-02-04T11:01:15.899Z,8.29
2023-02-04T11:06:36.709Z,8.32
2023-02-04T11:11:28.517Z,8.39
2023-02-04T11:16:33.000Z,8.52
2023-02-04T11:21:45.550Z,8.60
2023-02-04T11:27:07.772Z,8.64
2023-02-04T11:32:02.645Z,8.60
2023-02-04T11:37:13.427Z,8.67
2023-02-04T11:42:28.123Z,8.67
2023-02-04T11:47:20.918Z,8.66
2023-02-04T11:52:14.550Z,8.72
2023-02-04T11:57:06.252Z,8.74
2023-02-04T12:02:17.314Z,8.82
2023-02-04T12:07:12.928Z,8.80
2023-02-04T12:12:04.784Z,8.80
2023-02-04T12:16:56.619Z,8.78
2023-02-04T12:21:48.385Z,8.79
2023-02-04T12:26:40.194Z,8.81
2023-02-04T12:31:33.084Z,8.81
2023-02-04T12:36:27.586Z,8.80
2023-02-04T12:41:20.003Z,8.80
2023-02-04T12:46:12.275Z,8.84
2023-02-04T12:51:04.177Z,8.87
2023-02-04T12:55:57.687Z,8.91
2023-02-04T13:00:49.619Z,8.92
2023-02-04T13:05:41.492Z,8.90
2023-02-04T13:10:33.177Z,8.84
2023-02-04T13:15:24.971Z,8.81
2023-02-04T13:20:16.880Z,8.86
2023-02-04T13:25:10.320Z,8.88
2023-02-04T13:30:02.091Z,8.91
2023-02-04T13:34:53.886Z,8.96
2023-02-04T13:39:45.550Z,9.01
2023-02-04T13:44:37.250Z,9.05
2023-02-04T13:49:28.991Z,9.06
2023-02-04T13:54:20.765Z,9.07
2023-02-04T13:59:12.420Z,9.06
2023-02-04T14:04:04.256Z,9.06
2023-02-04T14:08:55.949Z,9.07
2023-02-04T14:13:47.672Z,9.08
2023-02-04T14:18:39.382Z,9.10
2023-02-04T14:23:31.119Z,9.08
2023-02-04T14:28:22.899Z,9.03
2023-02-04T14:33:15.974Z,8.98
2023-02-04T14:38:07.625Z,8.92
2023-02-04T14:42:59.343Z,8.88
2023-02-04T14:47:52.686Z,8.84
2023-02-04T14:52:44.545Z,8.83
2023-02-04T14:57:36.295Z,8.81
2023-02-04T15:02:28.177Z,8.82
2023-02-04T15:07:19.876Z,8.83
2023-02-04T15:12:11.961Z,8.79
2023-02-04T15:17:03.819Z,8.74
2023-02-04T15:21:55.664Z,8.70
2023-02-04T15:26:47.378Z,8.71
2023-02-04T15:31:39.108Z,8.69
2023-02-04T15:36:30.903Z,8.69
2023-02-04T15:41:23.504Z,8.67
2023-02-04T15:46:15.139Z,8.67
2023-02-04T15:51:07.006Z,8.69
2023-02-04T15:55:58.662Z,8.69
2023-02-04T16:00:50.440Z,8.72
2023-02-04T16:05:42.102Z,8.69
2023-02-04T16:10:34.035Z,8.62
2023-02-04T16:15:26.182Z,8.56
2023-02-04T16:20:18.727Z,8.59
2023-02-04T16:25:11.007Z,8.59
2023-02-04T16:30:03.650Z,8.61
2023-02-04T16:34:56.890Z,8.64
2023-02-04T16:39:49.097Z,8.62
2023-02-04T16:44:41.180Z,8.62
2023-02-04T16:49:32.996Z,8.58
2023-02-04T16:54:24.694Z,8.55
2023-02-04T16:59:16.593Z,8.53
2023-02-04T17:04:08.406Z,8.52
2023-02-04T17:09:00.152Z,8.51
2023-02-04T17:13:51.908Z,8.49
2023-02-04T17:18:43.540Z,8.48
2023-02-04T17:23:35.502Z,8.48
2023-02-04T17:28:27.259Z,8.48
2023-02-04T17:33:19.213Z,8.52
2023-02-04T17:38:11.045Z,8.51
2023-02-04T17:43:03.860Z,8.52
2023-02-04T17:47:55.586Z,8.53
2023-02-04T17:52:47.328Z,8.54
2023-02-04T17:57:39.166Z,8.53
2023-02-04T18:02:31.775Z,8.51
2023-02-04T18:07:24.819Z,8.50
2023-02-04T18:12:18.493Z,8.50
2023-02-04T18:17:13.285Z,8.53
2023-02-04T18:22:16.906Z,8.52
2023-02-04T18:27:24.192Z,8.56
2023-02-04T18:32:20.858Z,8.59
2023-02-04T18:37:32.958Z,8.60
2023-02-04T18:42:27.615Z,8.62
2023-02-04T18:47:32.570Z,8.63
2023-02-04T18:52:24.261Z,8.68
2023-02-04T18:57:31.294Z,8.70
2023-02-04T19:02:28.805Z,8.72
2023-02-04T19:07:20.624Z,8.74
2023-02-04T19:12:21.844Z,8.77
2023-02-04T19:17:26.493Z,8.80
2023-02-04T19:22:18.952Z,8.81
2023-02-04T19:27:32.954Z,8.84
2023-02-04T19:32:31.462Z,8.85
2023-02-04T19:37:41.039Z,8.88
2023-02-04T19:42:37.160Z,8.85
2023-02-04T19:47:42.194Z,8.86
2023-02-04T19:52:37.543Z,8.85
2023-02-04T19:57:32.587Z,8.88
2023-02-04T20:02:50.980Z,8.88
2023-02-04T20:07:42.653Z,8.89
2023-02-04T20:12:34.685Z,8.90
2023-02-04T20:17:49.941Z,8.89
2023-02-04T20:22:49.672Z,8.85
2023-02-04T20:27:41.948Z,8.79
2023-02-04T20:32:38.578Z,8.67
2023-02-04T20:37:31.482Z,8.58
2023-02-04T20:42:44.312Z,8.46
2023-02-04T20:47:36.322Z,8.37
2023-02-04T20:52:40.141Z,8.26
2023-02-04T20:57:32.272Z,8.16
2023-02-04T21:02:23.957Z,8.04
2023-02-04T21:07:20.934Z,7.95
2023-02-04T21:12:13.083Z,7.85
2023-02-04T21:17:04.865Z,7.77
2023-02-04T21:21:57.663Z,7.71
2023-02-04T21:26:49.508Z,7.62
2023-02-04T21:31:41.660Z,7.52
2023-02-04T21:36:33.599Z,7.45
2023-02-04T21:41:25.387Z,7.38
2023-02-04T21:46:17.904Z,7.30
2023-02-04T21:51:09.760Z,7.21
2023-02-04T21:56:01.579Z,7.10
2023-02-04T22:00:53.452Z,7.00
2023-02-04T22:05:45.735Z,6.88
2023-02-04T22:10:37.806Z,6.77
2023-02-04T22:15:29.521Z,6.68
2023-02-04T22:20:23.677Z,6.61
2023-02-04T22:25:17.159Z,6.55
2023-02-04T22:30:10.363Z,6.47
2023-02-04T22:35:02.182Z,6.43
2023-02-04T22:39:54.068Z,6.41
2023-02-04T22:44:45.815Z,6.34
2023-02-04T22:49:37.535Z,6.26
2023-02-04T22:54:29.271Z,6.15
2023-02-04T22:59:21.276Z,6.04
2023-02-04T23:04:13.000Z,5.92
2023-02-04T23:09:04.750Z,5.89
2023-02-04T23:13:56.496Z,5.79
2023-02-04T23:18:48.227Z,5.70
2023-02-04T23:23:40.267Z,5.67
2023-02-04T23:28:32.336Z,5.62
2023-02-04T23:33:24.198Z,5.59
2023-02-04T23:38:16.031Z,5.53
2023-02-04T23:43:09.911Z,5.45
2023-02-04T23:48:02.656Z,5.39
2023-02-04T23:52:54.286Z,5.34
2023-02-04T23:57:49.684Z,5.30
